Time;durP1;ratioP1;P1;durP2;ratioP2;P2;SDS_P1;SDS_P2;PMS_P1;PMS_P2;Temp;Humidity;BMP_temperature;BMP_pressure;BME280_temperature;BME280_humidity;BME280_pressure;Samples;Min_cycle;Max_cycle;Signal;HPM_P1;HPM_P2
2023/08/27 00:02:20;;;;;;;9.95;6.95;;;23.10;54.70;;;;;;5054122;28;20071;-64
2023/08/27 00:04:48;;;;;;;8.80;7.20;;;23.40;54.40;;;;;;5053786;28;20443;-72
2023/08/27 00:07:16;;;;;;;10.63;7.10;;;22.80;56.50;;;;;;5055010;28;20025;-73
2023/08/27 00:09:43;;;;;;;11.98;4.53;;;23.30;54.60;;;;;;5053587;28;20056;-71
2023/08/27 00:12:11;;;;;;;7.28;4.30;;;21.90;56.30;;;;;;5053365;28;20465;-72
2023/08/27 00:14:38;;;;;;;6.78;4.53;;;21.40;57.90;;;;;;5053995;28;20021;-73
2023/08/27 00:17:06;;;;;;;6.32;4.32;;;21.90;56.30;;;;;;5055001;28;20017;-73
2023/08/27 00:19:34;;;;;;;6.15;4.05;;;22.20;55.90;;;;;;5053779;28;20125;-73
2023/08/27 00:22:03;;;;;;;6.97;3.90;;;22.90;55.90;;;;;;5053959;28;20021;-73
2023/08/27 00:24:32;;;;;;;5.65;4.00;;;22.30;55.50;;;;;;5054926;28;20102;-66
2023/08/27 00:26:59;;;;;;;5.28;3.75;;;22.10;57.10;;;;;;5053880;28;20036;-65
2023/08/27 00:29:27;;;;;;;5.18;3.00;;;23.00;54.90;;;;;;5053758;28;20094;-64
2023/08/27 00:31:55;;;;;;;5.80;3.13;;;23.10;53.40;;;;;;5053934;28;20443;-65
2023/08/27 00:34:25;;;;;;;5.10;3.35;;;23.10;52.70;;;;;;5053570;28;20462;-65
2023/08/27 00:36:52;;;;;;;4.68;3.03;;;22.80;52.90;;;;;;5053752;28;20025;-65
2023/08/27 00:39:20;;;;;;;6.63;3.28;;;23.30;51.80;;;;;;5054436;28;20017;-65
2023/08/27 00:41:47;;;;;;;6.57;3.38;;;23.80;52.20;;;;;;5054447;28;20032;-72
2023/08/27 00:44:15;;;;;;;5.20;3.22;;;24.00;51.60;;;;;;5058653;28;20347;-72
2023/08/27 00:46:43;;;;;;;5.28;2.88;;;23.80;50.70;;;;;;5057710;28;20036;-72
2023/08/27 00:49:11;;;;;;;4.32;3.20;;;24.10;51.10;;;;;;5058290;28;20025;-72
2023/08/27 00:51:39;;;;;;;3.65;2.40;;;23.90;52.50;;;;;;5057350;28;20028;-71
2023/08/27 00:54:07;;;;;;;3.35;2.70;;;24.70;49.50;;;;;;5058354;28;20043;-72
2023/08/27 00:56:34;;;;;;;5.20;2.50;;;23.80;50.00;;;;;;5058209;28;20024;-71
2023/08/27 00:59:03;;;;;;;4.43;2.08;;;24.30;49.90;;;;;;5056667;28;20359;-71
2023/08/27 01:01:32;;;;;;;3.35;1.70;;;24.30;48.00;;;;;;5056428;28;20039;-66
2023/08/27 01:04:00;;;;;;;2.30;1.80;;;23.60;50.40;;;;;;5059304;28;20028;-66
2023/08/27 01:06:27;;;;;;;3.60;1.92;;;23.60;49.30;;;;;;5056350;28;20374;-66
2023/08/27 01:09:12;;;;;;;2.70;1.80;;;23.50;49.50;;;;;;5058495;28;20099;-67
2023/08/27 01:12:02;;;;;;;6.00;2.20;;;23.30;51.20;;;;;;5056887;28;20083;-67
2023/08/27 01:14:35;;;;;;;2.80;1.60;;;23.60;50.20;;;;;;5057187;28;20075;-67
2023/08/27 01:17:05;;;;;;;4.38;2.10;;;23.40;49.00;;;;;;5057115;28;20017;-67
2023/08/27 01:19:33;;;;;;;3.85;2.10;;;23.60;48.20;;;;;;5056949;28;20055;-66
2023/08/27 01:22:02;;;;;;;2.97;1.90;;;23.20;49.60;;;;;;5056684;28;20025;-65
2023/08/27 01:24:30;;;;;;;3.38;2.05;;;23.80;49.30;;;;;;5057522;28;20033;-66
2023/08/27 01:27:04;;;;;;;4.15;2.22;;;22.70;51.00;;;;;;5056831;28;20108;-66
2023/08/27 01:29:51;;;;;;;2.95;2.08;;;22.00;52.00;;;;;;5038466;28;20021;-65
2023/08/27 01:32:39;;;;;;;7.00;2.42;;;23.40;51.20;;;;;;5056512;28;20032;-65
2023/08/27 01:35:11;;;;;;;3.60;2.15;;;24.50;47.90;;;;;;5056648;28;20424;-68
2023/08/27 01:37:40;;;;;;;3.65;2.33;;;24.10;48.70;;;;;;5057394;28;20478;-68
2023/08/27 01:40:09;;;;;;;3.67;2.20;;;23.60;49.70;;;;;;5056391;28;20396;-69
2023/08/27 01:42:37;;;;;;;3.83;2.50;;;24.10;48.80;;;;;;5055358;28;20029;-68
2023/08/27 01:45:11;;;;;;;3.10;2.20;;;24.00;48.10;;;;;;5057326;28;20031;-68
2023/08/27 01:47:39;;;;;;;3.42;2.05;;;24.00;49.40;;;;;;5056461;28;20028;-68
2023/08/27 01:50:08;;;;;;;4.38;2.70;;;24.30;47.80;;;;;;5056472;28;20115;-68
2023/08/27 01:52:36;;;;;;;4.38;2.25;;;24.00;48.50;;;;;;5056032;28;20410;-68
2023/08/27 01:55:10;;;;;;;3.92;2.20;;;24.50;46.90;;;;;;5056451;28;20082;-68
2023/08/27 01:57:38;;;;;;;3.95;2.53;;;24.10;49.60;;;;;;5056728;28;20451;-69
2023/08/27 02:00:09;;;;;;;5.35;2.60;;;24.60;47.00;;;;;;5056153;28;20037;-68
2023/08/27 02:02:37;;;;;;;5.28;2.70;;;25.10;47.60;;;;;;5056215;28;20150;-69
2023/08/27 02:05:08;;;;;;;3.42;2.50;;;24.80;47.40;;;;;;5056138;28;20054;-67
2023/08/27 02:07:38;;;;;;;3.40;2.13;;;24.60;46.20;;;;;;5055893;28;20358;-68
2023/08/27 02:10:07;;;;;;;3.67;2.33;;;24.90;45.90;;;;;;5056694;28;20126;-68
2023/08/27 02:12:35;;;;;;;3.65;2.65;;;24.90;45.50;;;;;;5056166;28;20025;-68
2023/08/27 02:15:03;;;;;;;5.15;2.72;;;25.50;45.10;;;;;;5055941;28;20024;-69
2023/08/27 02:17:31;;;;;;;4.05;2.45;;;24.80;43.80;;;;;;5055931;28;20321;-68
2023/08/27 02:19:59;;;;;;;4.80;2.08;;;24.90;46.30;;;;;;5055474;28;20053;-67
2023/08/27 02:22:27;;;;;;;2.50;2.15;;;24.80;45.20;;;;;;5055666;28;20511;-67
2023/08/27 02:24:54;;;;;;;2.85;1.88;;;25.60;43.20;;;;;;5056928;28;20053;-68
2023/08/27 02:27:22;;;;;;;4.55;2.00;;;25.40;43.70;;;;;;5055041;28;20025;-68
2023/08/27 02:29:49;;;;;;;4.55;2.08;;;25.30;43.40;;;;;;5055292;28;20450;-68
2023/08/27 02:32:17;;;;;;;3.03;2.40;;;25.10;42.30;;;;;;5056708;28;20328;-69
2023/08/27 02:34:44;;;;;;;3.97;1.92;;;25.80;42.80;;;;;;5055648;28;20032;-68
2023/08/27 02:37:12;;;;;;;2.78;2.05;;;26.80;42.40;;;;;;5056328;28;20013;-68
2023/08/27 02:39:39;;;;;;;3.63;2.17;;;26.90;41.20;;;;;;5055438;28;20063;-69
2023/08/27 02:42:07;;;;;;;3.55;2.00;;;26.80;41.40;;;;;;5055394;28;20053;-70
2023/08/27 02:44:34;;;;;;;4.40;2.00;;;26.90;41.90;;;;;;5056273;28;20017;-68
2023/08/27 02:47:03;;;;;;;2.95;1.77;;;26.20;43.60;;;;;;5055521;28;20021;-68
2023/08/27 02:49:30;;;;;;;2.67;1.70;;;24.70;44.60;;;;;;5056229;28;20355;-67
2023/08/27 02:51:58;;;;;;;4.03;2.00;;;24.70;43.00;;;;;;5056312;28;20029;-68
2023/08/27 02:54:25;;;;;;;3.63;2.00;;;24.10;45.10;;;;;;5055537;28;20025;-69
2023/08/27 02:56:53;;;;;;;2.20;1.80;;;23.20;47.40;;;;;;5055787;28;20074;-68
2023/08/27 02:59:20;;;;;;;3.83;1.98;;;23.00;48.80;;;;;;5055510;28;20032;-68
2023/08/27 03:01:52;;;;;;;3.65;1.80;;;22.80;48.70;;;;;;5055455;28;20106;-67
2023/08/27 03:04:19;;;;;;;4.00;1.98;;;23.10;48.10;;;;;;5054504;28;20037;-67
2023/08/27 03:06:47;;;;;;;3.58;1.75;;;23.00;47.90;;;;;;5055540;28;20040;-69
2023/08/27 03:09:15;;;;;;;3.42;1.70;;;24.10;45.00;;;;;;5055393;28;20477;-67
2023/08/27 03:11:42;;;;;;;3.17;1.63;;;25.10;43.10;;;;;;5056127;28;20021;-68
2023/08/27 03:14:10;;;;;;;4.22;1.70;;;24.40;43.50;;;;;;5054766;28;20112;-68
2023/08/27 03:16:38;;;;;;;4.00;1.60;;;23.70;45.50;;;;;;5055240;28;20036;-68
2023/08/27 03:19:06;;;;;;;2.55;1.50;;;23.50;46.30;;;;;;5054763;28;20082;-68
2023/08/27 03:21:34;;;;;;;3.88;2.10;;;24.20;44.70;;;;;;5054880;28;20053;-68
2023/08/27 03:24:01;;;;;;;5.55;2.60;;;24.90;45.10;;;;;;5055152;28;20031;-68
2023/08/27 03:26:29;;;;;;;5.20;2.33;;;25.50;47.10;;;;;;5055490;28;20119;-68
2023/08/27 03:28:57;;;;;;;3.25;2.10;;;25.50;47.00;;;;;;5055172;28;20029;-68
2023/08/27 03:31:24;;;;;;;5.40;2.00;;;25.30;46.90;;;;;;5055485;28;20060;-68
2023/08/27 03:33:52;;;;;;;4.97;2.15;;;23.90;49.50;;;;;;5054970;28;20021;-69
2023/08/27 03:36:19;;;;;;;5.10;2.00;;;23.20;51.70;;;;;;5055966;28;20028;-68
2023/08/27 03:38:47;;;;;;;2.72;1.70;;;24.10;50.30;;;;;;5054856;28;20071;-68
2023/08/27 03:41:14;;;;;;;2.60;1.40;;;23.70;50.40;;;;;;5052551;28;20032;-68
2023/08/27 03:43:42;;;;;;;3.20;1.35;;;23.90;49.90;;;;;;5035806;28;20112;-69
2023/08/27 03:46:11;;;;;;;3.65;1.40;;;24.20;48.70;;;;;;5034885;28;20036;-67
2023/08/27 03:48:38;;;;;;;3.50;1.70;;;24.60;46.60;;;;;;5034158;28;20029;-67
2023/08/27 03:51:05;;;;;;;2.22;1.40;;;24.80;47.50;;;;;;5034372;28;20463;-68
2023/08/27 03:53:33;;;;;;;2.92;1.50;;;24.50;48.00;;;;;;5033845;28;20029;-69
2023/08/27 03:56:04;;;;;;;3.65;1.50;;;24.80;46.80;;;;;;5035112;28;20371;-69
2023/08/27 03:58:31;;;;;;;3.40;1.45;;;25.10;47.40;;;;;;5034170;28;20028;-68
2023/08/27 04:00:59;;;;;;;5.50;1.67;;;24.90;47.80;;;;;;5035342;28;20034;-65
2023/08/27 04:03:27;;;;;;;2.10;1.10;;;25.00;47.90;;;;;;5034036;28;20029;-66
2023/08/27 04:05:54;;;;;;;3.88;1.30;;;24.60;47.50;;;;;;5035180;28;20101;-66
2023/08/27 04:08:22;;;;;;;2.75;1.30;;;24.40;48.60;;;;;;5034959;28;20025;-65
2023/08/27 04:10:54;;;;;;;2.28;1.20;;;24.40;48.10;;;;;;5033630;28;20092;-66
2023/08/27 04:13:21;;;;;;;3.28;1.60;;;24.60;48.00;;;;;;5017890;28;20028;-67
2023/08/27 04:16:09;;;;;;;2.72;1.08;;;24.80;47.70;;;;;;5033133;28;20056;-66
2023/08/27 04:18:37;;;;;;;4.30;1.45;;;25.20;46.40;;;;;;5033849;28;20452;-67
2023/08/27 04:21:05;;;;;;;4.57;1.10;;;25.30;46.30;;;;;;5033752;28;20749;-66
2023/08/27 04:23:33;;;;;;;2.08;1.05;;;25.20;45.20;;;;;;5035242;28;20510;-66
2023/08/27 04:26:02;;;;;;;2.13;0.90;;;24.70;46.30;;;;;;5034772;28;20080;-67
2023/08/27 04:28:31;;;;;;;1.48;1.05;;;24.70;46.00;;;;;;5034969;28;20462;-65
2023/08/27 04:31:00;;;;;;;2.92;1.10;;;24.80;47.10;;;;;;5034758;28;20037;-66
2023/08/27 04:33:30;;;;;;;3.50;1.40;;;25.10;46.60;;;;;;5035163;28;20440;-65
2023/08/27 04:35:58;;;;;;;3.40;1.30;;;24.80;47.40;;;;;;5035057;28;20079;-66
2023/08/27 04:38:26;;;;;;;1.88;1.02;;;25.00;46.60;;;;;;5033627;28;20036;-65
2023/08/27 04:40:54;;;;;;;4.50;1.38;;;24.40;46.80;;;;;;5033054;28;20038;-66
2023/08/27 04:43:21;;;;;;;1.77;0.90;;;23.60;49.50;;;;;;5034871;28;20025;-66
2023/08/27 04:45:49;;;;;;;7.30;2.08;;;23.50;49.30;;;;;;5034050;28;20061;-66
2023/08/27 04:48:19;;;;;;;3.05;1.50;;;23.60;49.60;;;;;;5035134;28;20076;-67
2023/08/27 04:50:50;;;;;;;4.47;1.30;;;24.10;49.10;;;;;;5036448;28;20025;-66
2023/08/27 04:53:26;;;;;;;3.05;1.20;;;24.40;48.50;;;;;;5036797;28;20060;-66
2023/08/27 04:55:59;;;;;;;2.90;1.88;;;24.70;48.90;;;;;;5036081;28;20028;-66
2023/08/27 04:58:31;;;;;;;2.67;1.30;;;24.60;47.80;;;;;;5036189;28;20029;-67
2023/08/27 05:01:03;;;;;;;2.72;1.10;;;24.40;47.80;;;;;;5035905;28;20250;-68
2023/08/27 05:03:37;;;;;;;2.63;0.98;;;23.90;48.50;;;;;;5037117;28;20103;-68
2023/08/27 05:06:09;;;;;;;3.05;1.27;;;24.10;48.40;;;;;;5036329;28;20452;-66
2023/08/27 05:08:38;;;;;;;1.83;1.05;;;24.30;49.00;;;;;;5036818;28;20044;-65
2023/08/27 05:11:08;;;;;;;3.13;1.60;;;24.10;49.00;;;;;;5036403;28;20436;-66
2023/08/27 05:13:38;;;;;;;3.03;1.10;;;24.40;48.90;;;;;;5037548;28;20029;-65
2023/08/27 05:16:08;;;;;;;2.60;1.30;;;24.50;49.20;;;;;;5037376;28;20367;-67
2023/08/27 05:18:40;;;;;;;3.35;1.38;;;25.10;48.10;;;;;;5036916;28;20013;-66
2023/08/27 05:21:12;;;;;;;5.28;2.75;;;25.60;47.10;;;;;;5034787;28;20517;-65
2023/08/27 05:23:40;;;;;;;;;;;26.40;45.50;;;;;;5036580;28;20044;-67
2023/08/27 05:26:09;;;;;;;2.47;1.05;;;25.90;45.40;;;;;;5036154;28;19905;-66
2023/08/27 05:28:37;;;;;;;3.53;1.75;;;25.90;45.70;;;;;;5038076;28;20121;-67
2023/08/27 05:31:07;;;;;;;4.25;1.73;;;26.60;44.60;;;;;;5039464;28;20360;-68
2023/08/27 05:33:36;;;;;;;4.13;1.70;;;27.20;42.90;;;;;;5040147;28;20140;-67
2023/08/27 05:36:16;;;;;;;2.38;1.10;;;27.50;42.90;;;;;;5040170;28;20067;-68
2023/08/27 05:38:47;;;;;;;2.67;1.10;;;27.20;42.80;;;;;;5039400;28;20021;-65
2023/08/27 05:41:22;;;;;;;1.83;0.95;;;26.80;43.10;;;;;;5038689;28;20081;-68
2023/08/27 05:43:53;;;;;;;3.25;1.40;;;26.60;44.00;;;;;;5039776;28;20041;-70
2023/08/27 05:46:25;;;;;;;2.63;1.05;;;26.80;43.20;;;;;;5037941;28;20033;-65
2023/08/27 05:48:55;;;;;;;3.75;1.65;;;25.60;44.60;;;;;;5038632;28;20080;-66
2023/08/27 05:51:25;;;;;;;2.47;0.98;;;25.20;46.10;;;;;;5039340;28;20159;-68
2023/08/27 05:53:56;;;;;;;2.95;1.10;;;25.50;45.60;;;;;;5039609;28;20029;-67
2023/08/27 05:56:27;;;;;;;2.55;1.10;;;24.50;47.50;;;;;;5038892;28;20109;-66
2023/08/27 05:58:57;;;;;;;2.55;1.42;;;24.80;46.80;;;;;;5039261;28;20036;-65
2023/08/27 06:01:28;;;;;;;2.65;0.90;;;24.50;47.30;;;;;;5037537;28;20031;-66
2023/08/27 06:03:56;;;;;;;2.20;0.95;;;24.20;47.30;;;;;;5038043;28;20101;-68
2023/08/27 06:06:23;;;;;;;1.77;0.90;;;24.60;47.20;;;;;;5038894;28;20033;-68
2023/08/27 06:08:51;;;;;;;3.40;1.27;;;24.10;48.10;;;;;;5037848;28;20068;-69
2023/08/27 06:11:19;;;;;;;3.67;0.80;;;23.10;50.10;;;;;;5039020;28;20036;-67
2023/08/27 06:13:46;;;;;;;3.30;1.20;;;22.10;52.00;;;;;;5037808;28;20030;-67
2023/08/27 06:16:14;;;;;;;3.17;1.10;;;21.50;53.50;;;;;;5037620;28;20052;-66
2023/08/27 06:18:42;;;;;;;2.53;0.98;;;20.90;54.90;;;;;;5038951;28;20052;-68
2023/08/27 06:21:09;;;;;;;2.05;1.00;;;20.60;55.60;;;;;;5039102;28;20058;-67
2023/08/27 06:23:37;;;;;;;2.30;0.80;;;20.40;56.10;;;;;;5037297;28;20420;-67
2023/08/27 06:26:05;;;;;;;1.63;0.80;;;20.20;56.50;;;;;;5036961;28;20021;-67
2023/08/27 06:28:33;;;;;;;2.85;1.02;;;20.10;57.30;;;;;;5038975;28;20025;-66
2023/08/27 06:31:01;;;;;;;3.05;1.35;;;19.90;57.60;;;;;;5038828;28;20100;-66
2023/08/27 06:33:29;;;;;;;2.00;0.88;;;19.90;58.00;;;;;;5038122;28;20021;-68
2023/08/27 06:35:56;;;;;;;3.30;0.90;;;19.70;58.10;;;;;;5036878;28;20120;-67
2023/08/27 06:38:24;;;;;;;2.55;0.90;;;19.70;58.70;;;;;;5037406;28;20033;-66
2023/08/27 06:40:52;;;;;;;2.22;0.80;;;19.60;59.10;;;;;;5036690;28;20068;-67
2023/08/27 06:43:21;;;;;;;3.22;1.38;;;19.50;59.40;;;;;;5036672;28;20029;-68
2023/08/27 06:45:48;;;;;;;3.70;0.88;;;19.30;60.10;;;;;;5038354;28;20033;-68
2023/08/27 06:48:18;;;;;;;2.17;0.93;;;19.20;60.40;;;;;;5036029;28;20025;-68
2023/08/27 06:50:46;;;;;;;1.83;1.08;;;19.30;60.70;;;;;;5036661;28;20025;-69
2023/08/27 06:53:13;;;;;;;2.60;0.90;;;19.10;60.70;;;;;;5035987;28;20049;-67
2023/08/27 06:55:43;;;;;;;2.15;0.85;;;19.10;61.40;;;;;;5038654;28;20100;-65
2023/08/27 06:58:12;;;;;;;3.42;1.00;;;19.00;61.60;;;;;;5037972;28;20064;-67
2023/08/27 07:00:44;;;;;;;2.33;1.35;;;19.00;61.90;;;;;;5035869;28;20385;-68
2023/08/27 07:03:13;;;;;;;3.15;0.85;;;19.00;62.20;;;;;;5035744;28;20025;-66
2023/08/27 07:05:41;;;;;;;2.22;1.05;;;18.80;62.40;;;;;;5039212;28;20017;-68
2023/08/27 07:08:14;;;;;;;4.70;1.00;;;18.80;63.20;;;;;;5037519;28;20017;-68
2023/08/27 07:10:42;;;;;;;2.20;0.80;;;18.70;63.20;;;;;;5037945;28;20033;-67
2023/08/27 07:13:11;;;;;;;3.15;1.05;;;18.60;63.50;;;;;;5035449;28;20029;-67
2023/08/27 07:15:40;;;;;;;2.60;0.95;;;18.50;63.40;;;;;;5035396;28;20025;-67
2023/08/27 07:18:08;;;;;;;1.83;0.98;;;18.50;63.70;;;;;;5036965;28;20021;-68
2023/08/27 07:20:39;;;;;;;2.55;0.80;;;18.50;63.90;;;;;;5035868;28;20041;-68
2023/08/27 07:23:06;;;;;;;3.83;1.02;;;18.50;63.90;;;;;;5038127;28;20021;-68
2023/08/27 07:25:36;;;;;;;2.95;1.25;;;18.40;64.30;;;;;;5036988;28;20032;-67
2023/08/27 07:28:04;;;;;;;2.88;0.90;;;18.20;64.50;;;;;;5037605;28;20026;-67
2023/08/27 07:30:32;;;;;;;2.42;1.00;;;18.20;64.70;;;;;;5036937;28;20477;-68
2023/08/27 07:33:00;;;;;;;3.38;1.30;;;18.10;64.80;;;;;;5036760;28;20443;-66
2023/08/27 07:35:29;;;;;;;2.20;1.00;;;18.10;65.10;;;;;;5036076;28;20033;-67
2023/08/27 07:37:57;;;;;;;1.83;1.10;;;18.00;65.30;;;;;;5036879;28;20021;-67
2023/08/27 07:40:26;;;;;;;3.53;1.20;;;17.90;65.60;;;;;;5036852;28;20064;-67
2023/08/27 07:42:55;;;;;;;3.35;1.08;;;17.80;65.70;;;;;;5037768;28;20018;-67
2023/08/27 07:45:25;;;;;;;3.38;1.50;;;17.80;65.90;;;;;;5035060;28;20057;-66
2023/08/27 07:47:53;;;;;;;2.05;1.10;;;17.70;66.50;;;;;;5036212;28;20448;-68
2023/08/27 07:50:21;;;;;;;2.60;1.00;;;17.60;66.50;;;;;;5035242;28;20056;-68
2023/08/27 07:52:48;;;;;;;2.72;1.48;;;17.60;66.70;;;;;;5037265;28;20100;-67
2023/08/27 07:55:17;;;;;;;2.67;1.20;;;17.50;67.30;;;;;;5036388;28;20024;-67
2023/08/27 07:57:44;;;;;;;4.03;1.23;;;17.50;67.30;;;;;;5034284;28;20021;-68
2023/08/27 08:00:16;;;;;;;5.35;1.38;;;17.50;67.50;;;;;;5034999;28;20359;-69
2023/08/27 08:02:44;;;;;;;3.35;1.25;;;17.50;67.70;;;;;;5034373;28;20033;-64
2023/08/27 08:05:11;;;;;;;3.08;1.20;;;17.50;68.00;;;;;;5034124;28;20431;-64
2023/08/27 08:07:40;;;;;;;4.70;1.65;;;17.40;68.40;;;;;;5033613;28;20037;-65
2023/08/27 08:10:08;;;;;;;3.72;1.80;;;17.30;68.70;;;;;;5034631;28;20021;-63
2023/08/27 08:12:36;;;;;;;3.30;1.35;;;17.30;69.10;;;;;;5033796;28;20105;-65
2023/08/27 08:15:04;;;;;;;3.53;1.55;;;17.30;69.60;;;;;;5034873;28;20032;-64
2023/08/27 08:17:31;;;;;;;2.85;1.20;;;17.20;70.00;;;;;;5034490;28;20021;-65
2023/08/27 08:19:59;;;;;;;3.05;1.52;;;17.20;70.20;;;;;;5033714;28;20057;-64
2023/08/27 08:22:26;;;;;;;4.15;1.40;;;17.20;70.40;;;;;;5034157;28;20029;-65
2023/08/27 08:24:55;;;;;;;4.65;1.80;;;17.10;70.80;;;;;;5033830;28;20052;-63
2023/08/27 08:27:24;;;;;;;3.28;1.40;;;17.10;70.80;;;;;;5033772;28;20456;-65
2023/08/27 08:29:51;;;;;;;2.33;1.60;;;17.10;71.50;;;;;;5033486;28;20125;-64
2023/08/27 08:32:19;;;;;;;3.28;1.20;;;17.00;71.70;;;;;;5033597;28;20363;-63
2023/08/27 08:34:47;;;;;;;3.35;1.50;;;17.00;72.00;;;;;;5033775;28;20022;-65
2023/08/27 08:37:14;;;;;;;3.38;1.48;;;16.90;72.30;;;;;;5033792;28;20060;-65
2023/08/27 08:39:42;;;;;;;5.22;1.77;;;16.90;72.60;;;;;;5033519;28;20026;-64
2023/08/27 08:42:34;;;;;;;3.75;1.50;;;16.90;72.80;;;;;;5033744;28;20041;-65
2023/08/27 08:45:23;;;;;;;4.20;1.88;;;16.90;72.60;;;;;;5034143;28;20028;-65
2023/08/27 08:47:54;;;;;;;5.20;1.65;;;16.80;72.90;;;;;;5033104;28;20495;-64
2023/08/27 08:50:23;;;;;;;5.07;2.10;;;16.90;73.20;;;;;;5033187;28;20029;-64
2023/08/27 08:52:54;;;;;;;7.53;2.80;;;16.80;73.40;;;;;;5033172;28;20530;-66
2023/08/27 08:55:26;;;;;;;5.50;2.75;;;16.70;73.70;;;;;;5032992;28;20440;-65
2023/08/27 08:58:07;;;;;;;8.13;3.33;;;16.70;74.00;;;;;;5033379;28;20021;-64
2023/08/27 09:00:35;;;;;;;6.50;1.95;;;16.70;73.90;;;;;;5033536;28;20468;-64
2023/08/27 09:03:04;;;;;;;4.65;1.90;;;16.70;74.30;;;;;;5035249;28;20029;-64
2023/08/27 09:05:33;;;;;;;5.55;1.83;;;16.70;74.20;;;;;;5037195;28;20029;-65
2023/08/27 09:08:03;;;;;;;7.68;2.60;;;16.60;74.40;;;;;;5036590;28;20033;-65
2023/08/27 09:10:31;;;;;;;4.72;2.20;;;16.70;74.50;;;;;;5036521;28;20029;-64
2023/08/27 09:13:02;;;;;;;3.78;1.75;;;16.60;74.40;;;;;;5036989;28;20032;-65
2023/08/27 09:15:29;;;;;;;4.88;1.85;;;16.60;74.40;;;;;;5037255;28;20080;-66
2023/08/27 09:17:57;;;;;;;3.90;1.90;;;16.60;74.70;;;;;;5037087;28;20112;-66
2023/08/27 09:20:26;;;;;;;4.32;2.13;;;16.60;74.70;;;;;;5036656;28;20055;-66
2023/08/27 09:22:54;;;;;;;5.95;2.40;;;16.60;75.00;;;;;;5036886;28;20030;-65
2023/08/27 09:25:21;;;;;;;5.80;2.40;;;16.60;75.00;;;;;;5036828;28;20033;-66
2023/08/27 09:27:49;;;;;;;7.13;2.58;;;16.50;75.00;;;;;;5036929;28;20474;-66
2023/08/27 09:30:17;;;;;;;4.72;2.25;;;16.40;75.40;;;;;;5036792;28;20526;-66
2023/08/27 09:32:46;;;;;;;4.57;2.20;;;16.40;75.80;;;;;;5037067;28;20026;-65
2023/08/27 09:35:14;;;;;;;4.30;1.88;;;16.40;75.80;;;;;;5037026;28;20390;-66
2023/08/27 09:37:43;;;;;;;4.25;2.35;;;16.40;75.80;;;;;;5036543;28;20351;-66
2023/08/27 09:40:16;;;;;;;3.30;2.13;;;16.50;75.70;;;;;;5036232;28;20029;-65
2023/08/27 09:42:44;;;;;;;3.92;1.80;;;16.40;75.70;;;;;;5037090;28;20032;-66
2023/08/27 09:45:12;;;;;;;5.22;1.50;;;16.40;75.80;;;;;;5036450;28;20053;-66
2023/08/27 09:47:40;;;;;;;3.45;2.15;;;16.40;76.10;;;;;;5037565;28;20443;-66
2023/08/27 09:50:16;;;;;;;5.63;2.30;;;16.20;76.50;;;;;;5020504;28;20034;-66
2023/08/27 09:52:44;;;;;;;4.68;2.67;;;16.20;76.60;;;;;;5036715;28;20021;-67
2023/08/27 09:55:16;;;;;;;4.43;1.77;;;16.00;76.60;;;;;;5036680;28;20032;-66
2023/08/27 09:57:55;;;;;;;3.80;1.88;;;16.10;76.60;;;;;;5037416;28;20052;-66
2023/08/27 10:00:24;;;;;;;5.43;1.73;;;16.10;76.50;;;;;;5036611;28;20116;-66
2023/08/27 10:02:53;;;;;;;5.07;2.20;;;16.00;76.60;;;;;;5036425;28;20088;-66
2023/08/27 10:05:35;;;;;;;4.30;1.67;;;16.00;76.90;;;;;;5037454;28;20104;-65
2023/08/27 10:08:05;;;;;;;5.43;2.40;;;15.90;77.00;;;;;;5037335;28;20115;-66
2023/08/27 10:10:34;;;;;;;5.57;2.33;;;15.90;77.20;;;;;;5036376;28;20021;-66
2023/08/27 10:13:04;;;;;;;5.90;3.08;;;15.90;77.20;;;;;;5036114;28;20392;-66
2023/08/27 10:15:35;;;;;;;7.40;2.60;;;16.00;76.80;;;;;;5036134;28;20084;-66
2023/08/27 10:18:06;;;;;;;4.35;2.10;;;16.00;76.90;;;;;;5036057;28;20063;-65
2023/08/27 10:20:34;;;;;;;5.05;2.80;;;16.00;76.40;;;;;;5036006;28;20085;-65
2023/08/27 10:23:03;;;;;;;7.30;3.22;;;16.00;76.50;;;;;;5036149;28;20025;-66
2023/08/27 10:25:33;;;;;;;6.72;2.30;;;15.90;76.60;;;;;;5036119;28;20021;-64
2023/08/27 10:28:01;;;;;;;6.18;2.20;;;15.80;77.00;;;;;;5037225;28;20084;-65
2023/08/27 10:30:29;;;;;;;5.28;2.40;;;15.80;76.90;;;;;;5036872;28;20104;-66
2023/08/27 10:32:57;;;;;;;3.47;2.00;;;15.70;77.30;;;;;;5035986;28;20043;-65
2023/08/27 10:35:25;;;;;;;3.72;1.83;;;15.60;77.80;;;;;;5036028;28;20037;-66
2023/08/27 10:37:55;;;;;;;4.57;2.20;;;15.50;77.50;;;;;;5035871;28;20026;-65
2023/08/27 10:40:26;;;;;;;7.38;2.28;;;15.40;78.00;;;;;;5036831;28;20040;-66
2023/08/27 10:43:08;;;;;;;3.72;2.10;;;15.30;78.70;;;;;;5019600;28;20072;-66
2023/08/27 10:45:39;;;;;;;3.17;2.10;;;15.30;78.20;;;;;;5036730;28;20387;-66
2023/08/27 10:48:11;;;;;;;4.38;2.50;;;15.30;78.20;;;;;;5035606;28;20638;-65
2023/08/27 10:50:51;;;;;;;3.22;2.20;;;15.30;78.40;;;;;;5035657;28;20029;-65
2023/08/27 10:53:20;;;;;;;6.00;2.20;;;15.00;79.40;;;;;;5035678;28;20038;-65
2023/08/27 10:55:53;;;;;;;4.22;2.45;;;15.00;79.40;;;;;;5036471;28;20025;-65
2023/08/27 10:58:21;;;;;;;5.97;2.67;;;15.00;78.90;;;;;;5035407;28;20349;-65
2023/08/27 11:01:21;;;;;;;3.92;2.20;;;15.00;78.80;;;;;;5036396;28;20348;-66
2023/08/27 11:04:05;;;;;;;5.30;2.20;;;14.80;79.80;;;;;;5031713;28;20034;-65
2023/08/27 11:06:46;;;;;;;3.13;2.10;;;14.90;79.40;;;;;;5035261;28;20054;-64
2023/08/27 11:09:24;;;;;;;5.50;2.38;;;14.60;80.30;;;;;;5035199;28;20447;-64
2023/08/27 11:12:03;;;;;;;4.60;2.30;;;14.50;80.50;;;;;;5019219;28;20148;-65
2023/08/27 11:14:37;;;;;;;4.13;2.72;;;14.40;81.50;;;;;;5035275;28;20029;-65
2023/08/27 11:17:06;;;;;;;5.20;3.08;;;14.10;82.40;;;;;;5019016;28;20021;-65
2023/08/27 11:19:36;;;;;;;3.53;2.78;;;14.00;82.90;;;;;;5035749;28;20057;-64
2023/08/27 11:22:15;;;;;;;5.20;3.00;;;14.00;82.60;;;;;;5036034;28;20040;-66
2023/08/27 11:24:48;;;;;;;3.60;2.45;;;14.00;82.90;;;;;;5034632;28;20040;-64
2023/08/27 11:27:17;;;;;;;6.00;2.83;;;14.10;82.70;;;;;;5034638;28;20470;-65
2023/08/27 11:29:48;;;;;;;3.78;2.65;;;14.10;82.00;;;;;;5034822;28;20041;-64
2023/08/27 11:32:16;;;;;;;4.25;2.50;;;14.00;82.70;;;;;;5035093;28;20344;-65
2023/08/27 11:34:49;;;;;;;6.28;2.70;;;13.80;83.50;;;;;;5035840;28;20044;-64
2023/08/27 11:37:17;;;;;;;4.40;2.83;;;14.00;82.60;;;;;;5034819;28;20040;-65
2023/08/27 11:39:45;;;;;;;5.50;2.58;;;14.00;81.60;;;;;;5034709;28;20068;-65
2023/08/27 11:42:15;;;;;;;4.60;2.55;;;14.10;81.10;;;;;;5034694;28;20025;-64
2023/08/27 11:44:53;;;;;;;3.85;2.70;;;14.20;81.10;;;;;;5035635;28;20394;-65
2023/08/27 11:47:23;;;;;;;5.03;2.22;;;14.00;81.80;;;;;;5034617;28;20453;-65
2023/08/27 11:49:56;;;;;;;4.65;2.53;;;13.70;81.50;;;;;;5018327;28;20040;-64
2023/08/27 11:52:24;;;;;;;7.35;2.75;;;13.60;82.70;;;;;;5034940;28;20030;-65
2023/08/27 11:54:52;;;;;;;5.25;2.90;;;13.40;84.00;;;;;;5035441;28;20026;-64
2023/08/27 11:57:21;;;;;;;5.45;3.33;;;13.40;84.60;;;;;;5034474;28;20068;-65
2023/08/27 11:59:49;;;;;;;5.40;3.03;;;13.20;85.00;;;;;;5035397;28;20458;-65
2023/08/27 12:02:17;;;;;;;8.15;3.03;;;13.10;85.20;;;;;;5034477;28;20075;-65
2023/08/27 12:04:45;;;;;;;5.60;3.47;;;13.20;84.50;;;;;;5034362;28;20064;-64
2023/08/27 12:07:13;;;;;;;6.15;3.47;;;13.20;83.90;;;;;;5034391;28;20039;-65
2023/08/27 12:09:42;;;;;;;6.45;3.70;;;13.10;84.60;;;;;;5034316;28;20033;-64
2023/08/27 12:12:10;;;;;;;5.57;3.08;;;12.80;85.90;;;;;;5035121;28;20116;-65
2023/08/27 12:14:38;;;;;;;4.72;3.05;;;12.80;85.60;;;;;;5034304;28;20021;-64
2023/08/27 12:17:09;;;;;;;5.05;3.05;;;12.80;85.60;;;;;;5035020;28;20025;-65
2023/08/27 12:19:39;;;;;;;5.80;3.22;;;12.90;85.60;;;;;;5034928;28;20091;-65
2023/08/27 12:22:06;;;;;;;7.65;3.67;;;12.80;85.60;;;;;;5034257;28;20047;-65
2023/08/27 12:24:43;;;;;;;4.78;3.00;;;12.50;86.60;;;;;;5034258;28;20026;-65
2023/08/27 12:27:15;;;;;;;5.25;2.78;;;12.60;86.80;;;;;;5035173;28;20071;-65
2023/08/27 12:29:45;;;;;;;5.45;3.05;;;12.70;85.80;;;;;;5035073;28;20391;-65
2023/08/27 12:32:16;;;;;;;5.72;3.50;;;12.80;85.00;;;;;;5035053;28;20391;-66
2023/08/27 12:34:53;;;;;;;5.65;3.25;;;12.70;85.10;;;;;;5034203;28;20022;-64
2023/08/27 12:37:23;;;;;;;4.65;3.30;;;12.50;86.30;;;;;;5037106;28;20029;-65
2023/08/27 12:39:51;;;;;;;5.82;3.28;;;12.60;85.80;;;;;;5038049;28;20471;-65
2023/08/27 12:42:19;;;;;;;4.30;3.42;;;12.60;85.50;;;;;;5038078;28;20048;-65
2023/08/27 12:44:46;;;;;;;4.38;2.97;;;12.60;85.80;;;;;;5039043;28;20025;-65
2023/08/27 12:47:14;;;;;;;6.13;3.38;;;12.50;85.80;;;;;;5039049;28;20328;-64
2023/08/27 12:49:42;;;;;;;7.57;3.63;;;12.40;86.50;;;;;;5037962;28;20025;-65
2023/08/27 12:52:10;;;;;;;5.57;3.10;;;12.20;87.00;;;;;;5037876;28;20029;-64
2023/08/27 12:54:37;;;;;;;5.90;3.38;;;12.10;87.50;;;;;;5038837;28;20021;-64
2023/08/27 12:57:05;;;;;;;5.15;3.30;;;11.90;87.80;;;;;;5037853;28;20051;-65
2023/08/27 12:59:33;;;;;;;5.05;3.33;;;12.00;88.00;;;;;;5038464;28;20018;-66
2023/08/27 13:02:00;;;;;;;5.53;2.90;;;12.00;88.10;;;;;;5037752;28;20036;-65